Terminal Aerodrome Forecast
Issued by NWS

Home | Current Version | Previous Version | Text Only | Print | Product List | Glossary On
Versions: 1 2 3 4 5 6 7 8 9 10 11 12 13 14 15 16 17 18
000
FTUS41 KBGM 030852 AAA
TAFELM
TAF AMD
KELM 030852Z 0309/0406 VRB04KT P6SM OVC035
      TEMPO 0309/0312 3SM BR
     FM031500 VRB04KT P6SM BKN045=

USA.gov is the U.S. government's official web portal to all federal, state and local government web resources and services.